Time;durP1;ratioP1;P1;durP2;ratioP2;P2;SDS_P1;SDS_P2;PMS_P1;PMS_P2;Temp;Humidity;BMP_temperature;BMP_pressure;BME280_temperature;BME280_humidity;BME280_pressure;Samples;Min_cycle;Max_cycle;Signal;HPM_P1;HPM_P2
2023/08/03 00:01:08;;;;;;;3.27;1.60;;;23.00;46.80;;;;;;5154206;27;20249;-50
2023/08/03 00:03:34;;;;;;;4.30;1.93;;;23.00;47.30;;;;;;5154548;27;20170;-52
2023/08/03 00:05:59;;;;;;;3.47;2.03;;;23.00;46.90;;;;;;5154476;27;20255;-52
2023/08/03 00:08:25;;;;;;;3.53;2.17;;;23.00;47.20;;;;;;5154416;27;20210;-52
2023/08/03 00:10:51;;;;;;;4.23;2.00;;;23.00;46.90;;;;;;5153983;27;20561;-51
2023/08/03 00:13:17;;;;;;;5.57;1.77;;;23.00;47.00;;;;;;5154388;27;20166;-52
2023/08/03 00:15:42;;;;;;;3.90;2.00;;;23.00;46.70;;;;;;5154449;27;20245;-51
2023/08/03 00:18:08;;;;;;;5.00;2.10;;;23.00;46.70;;;;;;5152995;27;20165;-49
2023/08/03 00:20:34;;;;;;;6.77;2.77;;;23.00;46.60;;;;;;5153940;27;20194;-52
2023/08/03 00:23:00;;;;;;;5.00;2.20;;;23.00;46.60;;;;;;5154049;27;20165;-51
2023/08/03 00:25:25;;;;;;;4.17;2.07;;;22.90;46.90;;;;;;5154320;27;20253;-49
2023/08/03 00:27:51;;;;;;;2.53;2.17;;;22.90;46.80;;;;;;5154059;27;20655;-52
2023/08/03 00:30:17;;;;;;;7.80;2.20;;;22.90;46.50;;;;;;5153708;27;20190;-49
2023/08/03 00:32:43;;;;;;;5.30;2.03;;;22.90;46.40;;;;;;5154033;27;20398;-51
2023/08/03 00:35:09;;;;;;;6.17;2.10;;;22.90;46.80;;;;;;5154080;27;20531;-51
2023/08/03 00:37:37;;;;;;;3.30;2.60;;;23.00;47.00;;;;;;5153831;27;20166;-51
2023/08/03 00:40:03;;;;;;;4.07;1.97;;;22.90;46.70;;;;;;5153563;27;20435;-52
2023/08/03 00:42:29;;;;;;;6.67;2.20;;;22.90;46.80;;;;;;5153878;27;20429;-52
2023/08/03 00:44:54;;;;;;;4.43;1.80;;;22.90;46.50;;;;;;5154023;27;20403;-51
2023/08/03 00:47:20;;;;;;;5.70;2.70;;;22.90;47.00;;;;;;5154146;27;20668;-51
2023/08/03 00:49:46;;;;;;;4.53;2.03;;;22.90;46.40;;;;;;5153452;27;20583;-52
2023/08/03 00:52:12;;;;;;;4.23;2.50;;;23.00;46.00;;;;;;5152356;27;20240;-53
2023/08/03 00:54:38;;;;;;;21.30;2.23;;;23.00;46.70;;;;;;5152453;27;20174;-51
2023/08/03 00:57:04;;;;;;;3.40;1.97;;;23.00;46.90;;;;;;5154023;27;20663;-50
2023/08/03 00:59:30;;;;;;;2.40;1.57;;;23.00;46.50;;;;;;5153223;27;20443;-52
2023/08/03 01:01:56;;;;;;;2.97;2.00;;;23.00;46.00;;;;;;5153664;27;20788;-52
2023/08/03 01:04:22;;;;;;;4.23;1.77;;;23.00;46.00;;;;;;5153715;27;20437;-49
2023/08/03 01:06:48;;;;;;;3.67;1.90;;;22.90;46.10;;;;;;5153476;27;20174;-51
2023/08/03 01:09:13;;;;;;;4.70;1.77;;;22.90;46.10;;;;;;5153318;27;20158;-51
2023/08/03 01:11:42;;;;;;;4.63;2.13;;;23.00;45.80;;;;;;5153469;27;20276;-51
2023/08/03 01:14:08;;;;;;;4.70;2.40;;;23.00;46.30;;;;;;5153692;27;20535;-51
2023/08/03 01:16:34;;;;;;;5.67;2.10;;;22.90;46.00;;;;;;5153507;27;20395;-50
2023/08/03 01:19:00;;;;;;;5.70;2.30;;;23.00;46.20;;;;;;5152213;27;20166;-51
2023/08/03 01:21:27;;;;;;;9.43;2.43;;;23.00;46.60;;;;;;5153053;27;20431;-52
2023/08/03 01:23:53;;;;;;;5.17;2.33;;;23.00;46.70;;;;;;5153580;27;20162;-53
2023/08/03 01:26:18;;;;;;;6.13;2.00;;;23.00;47.00;;;;;;5153742;27;20433;-53
2023/08/03 01:28:44;;;;;;;4.40;2.00;;;23.00;46.60;;;;;;5153342;27;20460;-53
2023/08/03 01:31:10;;;;;;;7.60;2.37;;;23.00;46.20;;;;;;5153087;27;20288;-53
2023/08/03 01:33:36;;;;;;;9.67;1.97;;;22.90;46.60;;;;;;5153354;27;20169;-51
2023/08/03 01:36:02;;;;;;;6.33;2.10;;;22.90;47.00;;;;;;5153470;27;20403;-51
2023/08/03 01:38:28;;;;;;;4.37;1.53;;;22.90;46.70;;;;;;5153343;27;20392;-52
2023/08/03 01:40:54;;;;;;;4.10;1.70;;;22.90;47.30;;;;;;5152959;27;20442;-52
2023/08/03 01:43:21;;;;;;;4.97;1.50;;;22.80;47.60;;;;;;5153290;27;20236;-51
2023/08/03 01:45:47;;;;;;;5.10;1.70;;;22.90;47.80;;;;;;5153261;27;20177;-52
2023/08/03 01:48:13;;;;;;;4.10;2.30;;;22.80;47.80;;;;;;5152028;27;20403;-52
2023/08/03 01:50:39;;;;;;;5.70;2.70;;;22.80;47.70;;;;;;5152671;27;20563;-52
2023/08/03 01:53:04;;;;;;;5.43;2.23;;;22.70;47.70;;;;;;5153141;27;20205;-52
2023/08/03 01:55:30;;;;;;;4.63;2.10;;;22.70;47.50;;;;;;5153161;27;20189;-51
2023/08/03 01:57:56;;;;;;;4.70;2.17;;;22.80;47.30;;;;;;5153116;27;20589;-51
2023/08/03 02:00:24;;;;;;;5.53;3.00;;;22.70;47.60;;;;;;5151413;27;20202;-52
2023/08/03 02:02:51;;;;;;;7.53;2.70;;;22.80;47.20;;;;;;5153052;27;20768;-51
2023/08/03 02:05:17;;;;;;;5.20;2.13;;;22.80;47.30;;;;;;5153175;27;20411;-51
2023/08/03 02:07:55;;;;;;;3.37;2.30;;;22.80;47.60;;;;;;5152992;27;20399;-51
2023/08/03 02:10:23;;;;;;;11.30;2.87;;;22.80;47.40;;;;;;5152611;27;20447;-52
2023/08/03 02:12:50;;;;;;;5.07;2.27;;;22.80;47.80;;;;;;5152995;27;20402;-51
2023/08/03 02:15:16;;;;;;;7.77;2.30;;;22.80;47.80;;;;;;5156238;27;20395;-49
2023/08/03 02:17:43;;;;;;;6.43;2.50;;;22.80;47.80;;;;;;5156537;27;20764;-50
2023/08/03 02:20:10;;;;;;;8.47;2.80;;;22.80;47.10;;;;;;5154958;27;20458;-52
2023/08/03 02:22:36;;;;;;;3.43;1.80;;;22.80;46.60;;;;;;5156708;27;20832;-50
2023/08/03 02:25:02;;;;;;;4.50;1.93;;;22.80;46.60;;;;;;5156721;27;20490;-52
2023/08/03 02:27:28;;;;;;;8.27;2.73;;;22.90;46.60;;;;;;5156810;27;20178;-51
2023/08/03 02:29:54;;;;;;;4.73;1.83;;;22.90;46.80;;;;;;5156084;27;20617;-51
2023/08/03 02:32:21;;;;;;;4.77;1.83;;;22.90;46.30;;;;;;5156340;27;20218;-52
2023/08/03 02:34:47;;;;;;;5.87;2.43;;;22.90;46.20;;;;;;5156534;27;20170;-51
2023/08/03 02:37:13;;;;;;;9.83;3.20;;;23.00;46.30;;;;;;5156338;27;20490;-54
2023/08/03 02:39:39;;;;;;;7.70;2.27;;;23.00;46.20;;;;;;5155965;27;20473;-52
2023/08/03 02:42:05;;;;;;;3.43;2.17;;;23.10;46.00;;;;;;5156231;27;20395;-50
2023/08/03 02:44:31;;;;;;;5.63;2.20;;;23.10;45.90;;;;;;5154882;27;20189;-50
2023/08/03 02:46:57;;;;;;;9.00;2.87;;;23.10;45.80;;;;;;5154735;27;20411;-53
2023/08/03 02:49:23;;;;;;;4.10;2.57;;;23.10;45.70;;;;;;5155683;27;20403;-53
2023/08/03 02:51:49;;;;;;;5.67;2.10;;;23.10;45.10;;;;;;5156190;27;20454;-49
2023/08/03 02:54:14;;;;;;;11.90;2.70;;;23.10;45.30;;;;;;5155990;27;20162;-52
2023/08/03 02:56:40;;;;;;;3.63;2.13;;;23.10;46.00;;;;;;5156243;27;20253;-51
2023/08/03 02:59:06;;;;;;;5.57;2.73;;;23.10;45.80;;;;;;5155675;27;20302;-51
2023/08/03 03:01:32;;;;;;;9.90;2.93;;;23.10;45.50;;;;;;5155550;27;20193;-51
2023/08/03 03:03:57;;;;;;;7.33;2.73;;;23.10;45.70;;;;;;5155769;27;20719;-50
2023/08/03 03:06:23;;;;;;;3.43;1.60;;;23.10;45.40;;;;;;5156187;27;20254;-51
2023/08/03 03:08:49;;;;;;;3.90;1.60;;;23.20;45.00;;;;;;5155655;27;20662;-53
2023/08/03 03:11:15;;;;;;;5.00;2.53;;;23.20;45.10;;;;;;5155371;27;20566;-51
2023/08/03 03:13:40;;;;;;;6.97;2.30;;;23.30;44.70;;;;;;5155561;27;20250;-51
2023/08/03 03:16:06;;;;;;;5.60;1.90;;;23.30;45.00;;;;;;5155422;27;20173;-49
2023/08/03 03:18:32;;;;;;;6.43;1.63;;;23.30;44.80;;;;;;5155447;27;20169;-52
2023/08/03 03:20:58;;;;;;;4.73;2.00;;;23.40;44.70;;;;;;5155167;27;20217;-51
2023/08/03 03:23:23;;;;;;;2.50;1.70;;;23.40;44.70;;;;;;5155428;27;20162;-50
2023/08/03 03:25:49;;;;;;;3.63;1.63;;;23.40;44.70;;;;;;5155309;27;20173;-51
2023/08/03 03:28:15;;;;;;;4.77;2.37;;;23.30;44.90;;;;;;5155331;27;20178;-52
2023/08/03 03:30:41;;;;;;;6.87;2.03;;;23.30;44.80;;;;;;5154854;27;20205;-49
2023/08/03 03:33:06;;;;;;;4.80;2.10;;;23.30;45.00;;;;;;5155149;27;20169;-52
2023/08/03 03:35:32;;;;;;;2.97;1.70;;;23.30;45.20;;;;;;5155176;27;20528;-52
2023/08/03 03:37:58;;;;;;;6.40;1.83;;;23.30;44.70;;;;;;5153848;27;20218;-53
2023/08/03 03:40:24;;;;;;;2.97;1.90;;;23.30;44.10;;;;;;5154754;27;20216;-51
2023/08/03 03:42:50;;;;;;;8.00;2.13;;;23.30;44.70;;;;;;5155239;27;20252;-53
2023/08/03 03:45:15;;;;;;;6.27;2.37;;;23.30;44.70;;;;;;5154905;27;20500;-50
2023/08/03 03:47:41;;;;;;;6.33;1.70;;;23.30;44.30;;;;;;5154873;27;20177;-53
2023/08/03 03:50:07;;;;;;;5.20;2.83;;;23.30;44.70;;;;;;5154755;27;20446;-54
2023/08/03 03:52:33;;;;;;;6.43;2.23;;;23.30;45.20;;;;;;5154745;27;20162;-51
2023/08/03 03:54:59;;;;;;;6.30;2.53;;;23.30;44.30;;;;;;5155022;27;20402;-52
2023/08/03 03:57:25;;;;;;;7.20;2.53;;;23.20;44.20;;;;;;5154775;27;20184;-53
2023/08/03 03:59:50;;;;;;;10.53;2.10;;;23.20;43.80;;;;;;5154111;27;20577;-55
2023/08/03 04:02:16;;;;;;;3.63;1.77;;;23.20;44.90;;;;;;5153572;27;20166;-50
2023/08/03 04:04:42;;;;;;;4.00;2.30;;;23.20;44.30;;;;;;5154534;27;20165;-49
2023/08/03 04:07:08;;;;;;;8.03;2.03;;;23.20;44.40;;;;;;5154711;27;20208;-55
2023/08/03 04:09:33;;;;;;;5.50;2.03;;;23.30;44.10;;;;;;5154255;27;20186;-51
2023/08/03 04:11:59;;;;;;;4.57;2.00;;;23.30;44.40;;;;;;5154417;27;20219;-53
2023/08/03 04:14:25;;;;;;;6.30;2.20;;;23.30;44.30;;;;;;5154274;27;20174;-53
2023/08/03 04:16:52;;;;;;;6.23;2.57;;;23.20;44.10;;;;;;5154365;27;20162;-50
2023/08/03 04:19:18;;;;;;;6.93;2.30;;;23.10;44.10;;;;;;5153968;27;20227;-50
2023/08/03 04:21:44;;;;;;;7.10;2.63;;;23.10;43.50;;;;;;5154293;27;20403;-54
2023/08/03 04:24:09;;;;;;;5.10;1.90;;;23.10;43.50;;;;;;5154148;27;20438;-50
2023/08/03 04:26:35;;;;;;;9.80;2.10;;;23.10;43.90;;;;;;5154203;27;20170;-50
2023/08/03 04:29:01;;;;;;;4.80;2.20;;;23.10;43.90;;;;;;5154053;27;20661;-52
2023/08/03 04:31:27;;;;;;;3.80;2.00;;;23.10;43.20;;;;;;5152430;27;20201;-51
2023/08/03 04:33:53;;;;;;;3.40;2.00;;;23.20;43.10;;;;;;5154014;27;20702;-53
2023/08/03 04:36:19;;;;;;;5.07;2.27;;;23.20;43.40;;;;;;5153788;27;20178;-52
2023/08/03 04:38:44;;;;;;;6.23;2.40;;;23.20;42.70;;;;;;5154016;27;20923;-50
2023/08/03 04:41:10;;;;;;;7.80;2.20;;;23.20;43.10;;;;;;5153707;27;20555;-53
2023/08/03 04:43:36;;;;;;;4.00;1.80;;;23.20;42.70;;;;;;5153801;27;20193;-51
2023/08/03 04:46:02;;;;;;;3.80;1.70;;;23.20;43.00;;;;;;5153860;27;20722;-50
2023/08/03 04:48:27;;;;;;;7.60;2.30;;;23.30;42.50;;;;;;5153870;27;20170;-52
2023/08/03 04:50:53;;;;;;;5.00;2.23;;;23.40;42.10;;;;;;5153460;27;20198;-52
2023/08/03 04:53:19;;;;;;;5.43;1.70;;;23.30;42.30;;;;;;5153717;27;20403;-49
2023/08/03 04:55:45;;;;;;;9.60;2.00;;;23.40;41.70;;;;;;5153842;27;20162;-53
2023/08/03 04:58:11;;;;;;;6.10;1.53;;;23.50;42.40;;;;;;5153659;27;20546;-53
2023/08/03 05:00:36;;;;;;;2.70;1.70;;;23.50;41.70;;;;;;5153540;27;20284;-51
2023/08/03 05:03:02;;;;;;;6.63;1.53;;;23.60;41.30;;;;;;5153628;27;20884;-51
2023/08/03 05:05:28;;;;;;;3.90;2.00;;;23.60;41.50;;;;;;5153775;27;20166;-53
2023/08/03 05:07:54;;;;;;;5.90;2.10;;;23.70;40.50;;;;;;5153615;27;20539;-52
2023/08/03 05:10:19;;;;;;;7.03;1.83;;;23.80;41.90;;;;;;5153409;27;20213;-50
2023/08/03 05:12:45;;;;;;;6.73;1.80;;;23.80;42.00;;;;;;5153525;27;20543;-53
2023/08/03 05:15:11;;;;;;;3.60;1.93;;;23.80;40.40;;;;;;5153595;27;20654;-54
2023/08/03 05:17:37;;;;;;;7.17;2.23;;;23.90;40.30;;;;;;5153566;27;20158;-52
2023/08/03 05:20:03;;;;;;;2.90;1.80;;;23.90;41.40;;;;;;5153295;27;20189;-51
2023/08/03 05:22:28;;;;;;;4.10;1.60;;;24.00;41.10;;;;;;5153590;27;20169;-56
2023/08/03 05:24:54;;;;;;;3.30;1.70;;;24.00;40.20;;;;;;5153493;27;20884;-50
2023/08/03 05:27:20;;;;;;;5.40;2.30;;;24.10;40.60;;;;;;5153392;27;20191;-50
2023/08/03 05:29:46;;;;;;;4.13;1.23;;;24.20;40.50;;;;;;5153140;27;20606;-55
2023/08/03 05:32:11;;;;;;;3.33;1.43;;;24.20;40.40;;;;;;5153333;27;20206;-53
2023/08/03 05:34:38;;;;;;;3.53;2.00;;;24.30;41.00;;;;;;5152103;27;20185;-52
2023/08/03 05:37:04;;;;;;;3.53;1.70;;;24.40;41.30;;;;;;5153495;27;20201;-55
2023/08/03 05:39:29;;;;;;;4.90;1.57;;;24.40;40.30;;;;;;5152995;27;20456;-52
2023/08/03 05:41:56;;;;;;;5.80;2.30;;;24.50;40.90;;;;;;5153238;27;20411;-52
2023/08/03 05:44:21;;;;;;;12.60;1.80;;;24.60;40.50;;;;;;5153169;27;20307;-54
2023/08/03 05:46:47;;;;;;;8.20;2.00;;;24.60;40.20;;;;;;5153277;27;20434;-51
2023/08/03 05:49:13;;;;;;;7.47;1.90;;;24.60;39.30;;;;;;5154407;27;20178;-50
2023/08/03 05:51:39;;;;;;;4.30;1.90;;;24.60;39.50;;;;;;5157211;27;20254;-53
2023/08/03 05:54:09;;;;;;;3.83;1.97;;;24.60;38.60;;;;;;5157237;27;20196;-52
2023/08/03 05:56:37;;;;;;;5.70;1.63;;;24.50;38.30;;;;;;5156941;27;20395;-50
2023/08/03 05:59:03;;;;;;;3.37;1.77;;;24.50;38.60;;;;;;5156842;27;20407;-52
2023/08/03 06:01:29;;;;;;;6.80;1.53;;;24.50;39.60;;;;;;5156824;27;20419;-54
2023/08/03 06:03:55;;;;;;;9.37;1.93;;;24.60;38.90;;;;;;5156981;27;20406;-50
2023/08/03 06:06:21;;;;;;;6.67;2.00;;;24.60;39.10;;;;;;5156967;27;20173;-51
2023/08/03 06:08:58;;;;;;;4.47;1.63;;;24.70;38.60;;;;;;5157118;27;20391;-55
2023/08/03 06:11:24;;;;;;;5.70;2.10;;;24.90;38.50;;;;;;5156592;27;20450;-54
2023/08/03 06:13:51;;;;;;;6.13;1.83;;;24.90;38.40;;;;;;5155491;27;20502;-53
2023/08/03 06:16:17;;;;;;;6.27;1.57;;;25.00;39.10;;;;;;5156837;27;20438;-54
2023/08/03 06:18:52;;;;;;;3.33;1.80;;;25.10;38.60;;;;;;5156718;27;20833;-52
2023/08/03 06:21:19;;;;;;;6.80;1.57;;;25.20;39.90;;;;;;5156452;27;20430;-55
2023/08/03 06:23:49;;;;;;;3.13;1.30;;;25.30;38.00;;;;;;5156801;27;20490;-53
2023/08/03 06:26:17;;;;;;;9.40;1.87;;;25.30;37.60;;;;;;5156630;27;20404;-53
2023/08/03 06:28:44;;;;;;;2.83;1.00;;;25.30;36.20;;;;;;5156645;27;20414;-52
2023/08/03 06:31:15;;;;;;;3.20;1.50;;;25.30;37.60;;;;;;5154808;27;20451;-55
2023/08/03 06:33:43;;;;;;;3.17;1.30;;;25.50;36.80;;;;;;5156431;27;20407;-52
2023/08/03 06:36:40;;;;;;;3.87;1.80;;;25.60;37.50;;;;;;5156328;27;20403;-53
2023/08/03 06:39:05;;;;;;;5.90;1.67;;;25.70;36.70;;;;;;5150242;27;20408;-53
2023/08/03 06:41:31;;;;;;;6.70;2.07;;;25.80;36.20;;;;;;5156039;27;20438;-54
2023/08/03 06:43:57;;;;;;;3.07;1.43;;;25.90;35.50;;;;;;5156178;27;20169;-52
2023/08/03 06:46:25;;;;;;;9.40;1.80;;;26.00;36.10;;;;;;5156324;27;20207;-54
2023/08/03 06:48:52;;;;;;;4.63;1.33;;;26.00;34.90;;;;;;5156242;27;20411;-55
2023/08/03 06:51:18;;;;;;;1.70;1.10;;;25.90;34.80;;;;;;5155948;27;20542;-51
2023/08/03 06:53:44;;;;;;;3.13;1.17;;;25.90;35.10;;;;;;5154706;27;20411;-52
2023/08/03 06:56:09;;;;;;;3.03;1.10;;;25.70;34.30;;;;;;5155985;27;20921;-54
2023/08/03 06:58:35;;;;;;;6.47;1.37;;;25.60;34.50;;;;;;5155884;27;20431;-52
2023/08/03 07:01:01;;;;;;;9.70;1.40;;;25.50;35.10;;;;;;5154974;27;20694;-52
2023/08/03 07:03:27;;;;;;;4.80;1.70;;;25.40;35.00;;;;;;5155808;27;20174;-52
2023/08/03 07:05:53;;;;;;;3.93;1.27;;;25.40;35.80;;;;;;5155800;27;20170;-54
2023/08/03 07:08:19;;;;;;;8.53;1.10;;;25.40;36.00;;;;;;5155848;27;20399;-52
2023/08/03 07:10:45;;;;;;;1.93;1.00;;;25.30;35.50;;;;;;5155296;27;20469;-52
2023/08/03 07:13:11;;;;;;;11.80;1.47;;;25.30;35.20;;;;;;5155541;27;20170;-54
2023/08/03 07:15:36;;;;;;;2.00;1.00;;;25.30;36.30;;;;;;5155726;27;20226;-53
2023/08/03 07:18:06;;;;;;;3.77;1.17;;;25.20;35.50;;;;;;5155510;27;20979;-52
2023/08/03 07:20:33;;;;;;;2.63;1.10;;;25.10;35.80;;;;;;5155204;27;20250;-54
2023/08/03 07:22:59;;;;;;;2.47;1.00;;;25.10;35.90;;;;;;5155338;27;20423;-52
2023/08/03 07:25:26;;;;;;;4.13;1.10;;;25.20;35.70;;;;;;5155342;27;20407;-54
2023/08/03 07:27:52;;;;;;;4.07;0.80;;;25.20;35.40;;;;;;5154034;27;20415;-53
2023/08/03 07:30:18;;;;;;;2.93;0.90;;;25.10;34.70;;;;;;5154799;27;20987;-52
2023/08/03 07:32:44;;;;;;;3.30;1.00;;;25.10;34.60;;;;;;5155170;27;20452;-55
2023/08/03 07:35:10;;;;;;;1.90;1.10;;;25.10;34.80;;;;;;5155138;27;20406;-52
2023/08/03 07:37:36;;;;;;;2.00;1.00;;;25.10;35.40;;;;;;5155107;27;20442;-52
2023/08/03 07:40:03;;;;;;;3.63;1.40;;;25.10;36.60;;;;;;5154808;27;20455;-55
2023/08/03 07:42:29;;;;;;;3.07;1.03;;;25.20;35.60;;;;;;5154924;27;20170;-52
2023/08/03 07:44:55;;;;;;;3.67;1.93;;;25.20;35.60;;;;;;5154888;27;20455;-52
2023/08/03 07:47:21;;;;;;;3.10;1.47;;;25.20;34.70;;;;;;5153730;27;20430;-54
2023/08/03 07:49:47;;;;;;;5.17;1.93;;;25.20;35.60;;;;;;5154768;27;20487;-54
2023/08/03 07:52:13;;;;;;;6.90;1.77;;;25.20;34.60;;;;;;5154780;27;21007;-51
2023/08/03 07:54:39;;;;;;;4.20;1.43;;;25.10;35.80;;;;;;5154802;27;20771;-56
2023/08/03 07:57:05;;;;;;;2.87;1.43;;;25.20;36.00;;;;;;5154703;27;20459;-55
2023/08/03 07:59:31;;;;;;;3.60;0.90;;;25.40;35.50;;;;;;5154176;27;20209;-52
2023/08/03 08:01:58;;;;;;;6.43;2.00;;;25.40;36.20;;;;;;5154722;27;20403;-55
2023/08/03 08:04:24;;;;;;;4.77;1.57;;;25.50;35.30;;;;;;5153349;27;20782;-54
2023/08/03 08:06:50;;;;;;;6.20;1.57;;;25.50;35.60;;;;;;5154547;27;20405;-51
2023/08/03 08:09:16;;;;;;;3.40;1.47;;;25.50;36.00;;;;;;5154175;27;20223;-55
2023/08/03 08:11:41;;;;;;;2.50;1.10;;;25.50;35.50;;;;;;5153870;27;20280;-51
2023/08/03 08:14:07;;;;;;;1.60;1.00;;;25.50;36.50;;;;;;5154377;27;20720;-52
2023/08/03 08:16:33;;;;;;;3.10;1.20;;;25.50;35.20;;;;;;5154358;27;20253;-55
2023/08/03 08:18:59;;;;;;;4.00;1.33;;;25.50;34.70;;;;;;5154482;27;20181;-52
2023/08/03 08:21:24;;;;;;;4.87;1.30;;;25.50;34.80;;;;;;5153972;27;20208;-51
2023/08/03 08:23:50;;;;;;;3.97;1.30;;;25.50;35.00;;;;;;5154341;27;20181;-53
2023/08/03 08:26:17;;;;;;;3.53;1.40;;;25.50;34.90;;;;;;5154469;27;20174;-53
2023/08/03 08:28:46;;;;;;;1.97;1.30;;;25.50;35.30;;;;;;5154326;27;20208;-53
2023/08/03 08:31:12;;;;;;;3.57;1.30;;;25.50;34.30;;;;;;5153755;27;20466;-56
2023/08/03 08:33:38;;;;;;;2.70;1.07;;;25.40;34.20;;;;;;5154118;27;20399;-54
2023/08/03 08:36:04;;;;;;;4.10;1.20;;;25.40;34.80;;;;;;5154073;27;20173;-52
2023/08/03 08:38:31;;;;;;;4.13;1.20;;;25.50;34.50;;;;;;5152736;27;20919;-52
2023/08/03 08:41:01;;;;;;;4.37;1.03;;;25.50;35.50;;;;;;5153529;27;20437;-52
2023/08/03 08:43:27;;;;;;;2.87;1.10;;;25.50;35.30;;;;;;5154007;27;20426;-52
2023/08/03 08:45:53;;;;;;;5.00;1.30;;;25.70;35.20;;;;;;5154037;27;20411;-54
2023/08/03 08:48:19;;;;;;;2.87;1.13;;;25.80;34.90;;;;;;5154093;27;20468;-54
2023/08/03 08:50:46;;;;;;;3.17;1.30;;;25.90;34.20;;;;;;5153487;27;20782;-53
2023/08/03 08:53:14;;;;;;;4.60;0.97;;;26.10;34.50;;;;;;5153737;27;20460;-53
2023/08/03 08:55:40;;;;;;;2.87;0.93;;;26.10;33.60;;;;;;5153624;27;20449;-55
2023/08/03 08:58:06;;;;;;;3.33;1.13;;;26.10;34.20;;;;;;5153715;27;20447;-52
2023/08/03 09:00:47;;;;;;;2.47;1.03;;;26.00;34.40;;;;;;5153338;27;20534;-53
2023/08/03 09:03:14;;;;;;;2.23;1.37;;;26.00;33.90;;;;;;5153706;27;20435;-51
2023/08/03 09:05:40;;;;;;;2.57;1.00;;;25.90;34.40;;;;;;5153699;27;20424;-53
2023/08/03 09:08:09;;;;;;;3.93;1.57;;;25.90;33.80;;;;;;5153806;27;20772;-53
2023/08/03 09:10:55;;;;;;;1.57;0.90;;;26.00;34.70;;;;;;5153480;27;20474;-51
2023/08/03 09:13:39;;;;;;;3.53;1.67;;;26.00;35.40;;;;;;5153889;27;20407;-55
2023/08/03 09:16:05;;;;;;;4.03;1.10;;;26.00;35.20;;;;;;5153886;27;20464;-52
2023/08/03 09:18:32;;;;;;;2.77;1.20;;;25.90;33.80;;;;;;5153546;27;20787;-53
2023/08/03 09:21:15;;;;;;;2.23;0.90;;;25.90;34.40;;;;;;5153259;27;20277;-52
2023/08/03 09:23:41;;;;;;;5.73;2.00;;;25.90;33.40;;;;;;5155925;27;20896;-52
2023/08/03 09:26:08;;;;;;;3.20;1.10;;;25.90;34.50;;;;;;5157710;27;20403;-52
2023/08/03 09:28:41;;;;;;;3.33;1.10;;;25.90;34.70;;;;;;5157658;27;20459;-55
2023/08/03 09:31:08;;;;;;;2.80;1.00;;;25.80;33.70;;;;;;5157233;27;20503;-52
2023/08/03 09:33:34;;;;;;;2.70;1.47;;;25.80;34.10;;;;;;5157887;27;20781;-53
2023/08/03 09:36:10;;;;;;;2.67;1.23;;;25.90;34.40;;;;;;5157603;27;20410;-53
2023/08/03 09:38:40;;;;;;;1.63;0.77;;;26.10;34.50;;;;;;5157553;27;20418;-52
2023/08/03 09:41:06;;;;;;;2.30;0.90;;;26.10;33.60;;;;;;5157241;27;20462;-52
2023/08/03 09:43:34;;;;;;;1.43;0.67;;;26.10;33.70;;;;;;5157251;27;20498;-54
2023/08/03 09:46:01;;;;;;;1.87;0.87;;;26.10;32.50;;;;;;5157341;27;20753;-52
2023/08/03 09:48:27;;;;;;;1.80;0.70;;;26.10;33.30;;;;;;5157322;27;20418;-51
2023/08/03 09:50:55;;;;;;;3.23;0.70;;;26.10;33.60;;;;;;5155819;27;20455;-54
2023/08/03 09:53:25;;;;;;;4.07;1.00;;;26.10;33.90;;;;;;5157213;27;20399;-50
2023/08/03 09:55:58;;;;;;;2.30;1.10;;;26.20;34.20;;;;;;5157295;27;20442;-51
2023/08/03 09:58:44;;;;;;;2.40;0.80;;;26.30;33.60;;;;;;5157458;27;20439;-53
2023/08/03 10:01:14;;;;;;;5.27;0.60;;;26.50;33.30;;;;;;5156719;27;20811;-50
2023/08/03 10:03:46;;;;;;;1.83;0.87;;;26.60;32.80;;;;;;5156976;27;20411;-51
2023/08/03 10:06:16;;;;;;;2.50;1.17;;;26.70;34.00;;;;;;5156930;27;20418;-54
2023/08/03 10:09:08;;;;;;;2.00;0.80;;;26.90;32.70;;;;;;5156811;27;20399;-54
2023/08/03 10:11:42;;;;;;;1.63;0.67;;;27.00;32.50;;;;;;5155451;27;20794;-52
2023/08/03 10:14:11;;;;;;;7.73;0.80;;;27.00;33.90;;;;;;5156759;27;20420;-54
2023/08/03 10:16:40;;;;;;;4.07;1.00;;;27.00;32.40;;;;;;5156771;27;20964;-50
2023/08/03 10:19:07;;;;;;;2.40;0.90;;;27.00;32.40;;;;;;5156436;27;20459;-50
2023/08/03 10:21:34;;;;;;;1.70;0.70;;;27.00;32.70;;;;;;5156481;27;20471;-52
2023/08/03 10:24:11;;;;;;;7.13;1.47;;;26.90;32.30;;;;;;5156635;27;20399;-51
2023/08/03 10:26:37;;;;;;;2.67;1.23;;;26.90;32.30;;;;;;5156557;27;20918;-51
2023/08/03 10:29:04;;;;;;;4.17;0.90;;;26.80;32.30;;;;;;5156698;27;20463;-53
2023/08/03 10:31:30;;;;;;;9.23;1.20;;;26.70;33.20;;;;;;5156139;27;20876;-50
2023/08/03 10:33:56;;;;;;;3.40;1.13;;;26.70;33.00;;;;;;5156193;27;20407;-53
2023/08/03 10:36:27;;;;;;;6.70;1.00;;;26.60;32.90;;;;;;5155756;27;20414;-51
2023/08/03 10:39:03;;;;;;;4.83;1.13;;;26.50;33.00;;;;;;5156552;27;20400;-51
2023/08/03 10:41:38;;;;;;;2.10;1.07;;;26.40;32.70;;;;;;5156076;27;20442;-54
2023/08/03 10:44:07;;;;;;;2.13;0.90;;;26.40;33.50;;;;;;5156460;27;20717;-52
2023/08/03 10:46:43;;;;;;;2.70;1.10;;;26.40;34.70;;;;;;5156515;27;20415;-53
2023/08/03 10:49:44;;;;;;;8.27;1.30;;;26.30;33.90;;;;;;5156202;27;20411;-54
2023/08/03 10:52:21;;;;;;;2.60;0.73;;;26.20;33.30;;;;;;5140943;27;20477;-51
2023/08/03 10:54:48;;;;;;;2.73;1.03;;;26.20;33.60;;;;;;5156045;27;20407;-54
2023/08/03 10:57:25;;;;;;;1.70;0.97;;;26.20;34.30;;;;;;5156210;27;20407;-51
2023/08/03 10:59:56;;;;;;;1.80;1.03;;;26.10;34.30;;;;;;5155620;27;20446;-52
2023/08/03 11:02:28;;;;;;;2.37;0.87;;;26.10;34.20;;;;;;5155954;27;20395;-53
2023/08/03 11:04:56;;;;;;;2.60;1.13;;;26.10;34.60;;;;;;5155709;27;20395;-51
2023/08/03 11:07:33;;;;;;;1.93;1.13;;;26.20;35.00;;;;;;5155746;27;20398;-51
2023/08/03 11:10:01;;;;;;;2.03;1.20;;;26.30;34.00;;;;;;5155624;27;20535;-55
2023/08/03 11:12:27;;;;;;;2.50;1.00;;;26.30;34.30;;;;;;5155640;27;21074;-51
2023/08/03 11:14:55;;;;;;;6.30;0.97;;;26.50;33.90;;;;;;5155550;27;20392;-51
2023/08/03 11:17:26;;;;;;;1.80;1.00;;;26.60;34.00;;;;;;5155784;27;20426;-51
2023/08/03 11:19:53;;;;;;;2.77;1.20;;;26.60;33.30;;;;;;5155539;27;20415;-53
2023/08/03 11:22:23;;;;;;;1.80;0.97;;;26.50;31.90;;;;;;5154115;27;20410;-53
2023/08/03 11:24:55;;;;;;;3.80;1.10;;;26.30;32.40;;;;;;5155448;27;20923;-54
2023/08/03 11:27:22;;;;;;;3.20;1.00;;;26.30;32.30;;;;;;5155370;27;20406;-51
2023/08/03 11:29:48;;;;;;;2.37;1.13;;;26.30;33.80;;;;;;5154830;27;20407;-53
2023/08/03 11:32:21;;;;;;;2.40;0.90;;;26.20;33.20;;;;;;5155166;27;20978;-54
2023/08/03 11:34:47;;;;;;;2.07;1.30;;;26.10;32.30;;;;;;5155186;27;20431;-51
2023/08/03 11:37:13;;;;;;;3.87;1.20;;;26.10;34.10;;;;;;5155139;27;20423;-54
2023/08/03 11:39:39;;;;;;;3.83;1.20;;;26.10;33.80;;;;;;5154849;27;20190;-51
2023/08/03 11:42:07;;;;;;;3.57;1.40;;;26.10;33.00;;;;;;5155139;27;20166;-51
2023/08/03 11:44:38;;;;;;;3.53;1.13;;;26.20;33.50;;;;;;5154968;27;20412;-54
2023/08/03 11:47:08;;;;;;;3.60;0.87;;;26.20;33.50;;;;;;5155025;27;20409;-54
2023/08/03 11:49:34;;;;;;;3.53;1.20;;;26.10;32.90;;;;;;5154769;27;20419;-51
2023/08/03 11:52:01;;;;;;;1.97;0.90;;;26.10;33.10;;;;;;5154795;27;20495;-52
2023/08/03 11:54:37;;;;;;;3.97;1.20;;;26.10;33.20;;;;;;5155028;27;20399;-54
2023/08/03 11:59:49;;;;;;;2.10;1.07;;;26.10;33.50;;;;;;5154380;27;20453;-52
2023/08/03 12:02:16;;;;;;;3.20;1.27;;;26.00;33.90;;;;;;5154801;27;20403;-52
2023/08/03 12:04:42;;;;;;;6.67;2.37;;;26.00;34.00;;;;;;5154608;27;20407;-52
2023/08/03 12:07:08;;;;;;;4.00;1.83;;;26.10;34.90;;;;;;5154508;27;20456;-50
2023/08/03 12:09:39;;;;;;;2.80;0.90;;;26.20;34.50;;;;;;5154546;27;20476;-55
2023/08/03 12:12:11;;;;;;;4.70;1.43;;;26.30;33.70;;;;;;5154375;27;20443;-52
2023/08/03 12:14:37;;;;;;;1.50;0.80;;;26.40;34.00;;;;;;5154558;27;20399;-55
2023/08/03 12:17:09;;;;;;;2.30;0.67;;;26.30;33.10;;;;;;5154323;27;20429;-54
2023/08/03 12:19:37;;;;;;;3.20;1.27;;;26.30;31.90;;;;;;5154016;27;20415;-53
2023/08/03 12:22:03;;;;;;;2.00;0.90;;;26.10;32.90;;;;;;5154201;27;20495;-53
2023/08/03 12:24:29;;;;;;;4.20;1.23;;;26.10;33.70;;;;;;5152880;27;20411;-54
2023/08/03 12:26:56;;;;;;;2.50;1.17;;;26.10;33.60;;;;;;5154210;27;20410;-51
2023/08/03 12:29:22;;;;;;;3.50;1.20;;;26.00;33.00;;;;;;5154004;27;20448;-50
2023/08/03 12:31:48;;;;;;;2.23;0.83;;;26.10;34.30;;;;;;5154371;27;20481;-54
2023/08/03 12:34:14;;;;;;;3.93;1.00;;;26.10;34.80;;;;;;5154073;27;20407;-51
2023/08/03 12:36:40;;;;;;;1.90;1.17;;;26.20;34.30;;;;;;5154290;27;20403;-51
2023/08/03 12:39:06;;;;;;;4.70;1.10;;;26.30;34.80;;;;;;5153931;27;20170;-54
2023/08/03 12:41:32;;;;;;;3.13;1.17;;;26.30;34.30;;;;;;5153811;27;20193;-50
2023/08/03 12:43:58;;;;;;;2.90;0.93;;;26.30;33.10;;;;;;5153972;27;20406;-51
2023/08/03 12:46:24;;;;;;;3.40;1.27;;;26.30;33.70;;;;;;5153913;27;20485;-53
2023/08/03 12:48:50;;;;;;;3.60;0.77;;;26.30;33.20;;;;;;5153729;27;20203;-51